Needmore, Kentucky
Current Conditions -  °F | °C
As of 7:35 AM on Saturday 25 Oct 2014 (Local Time) from KFGX Reporting Station
Scattered Clouds Scattered Clouds  
Wind Chill:   Ceiling: Unl
Heat Index:   Visibility: 10mi
Dew Point:   Wind: 6mph
Humidity: 91%   Direction: 210°SSW
Pressure: 30.05"   Gusts: NA
Location:  38.4934°N, 83.7754°W
Report Text: KFGX 251135Z AUTO 21005KT 10SM SCT095 06/04 A3005 RMK AO2 T00550042
Loading
Personal Weather Stations






























Interactive Weather Map
Tropical Storm Tracking
New forecast layout! Learn more

10-Day Weather Forecast

Advertisements
Track Severe Weather on mobile